Accueil
METAR-TAF:

METAR-TAF

Aéroports :

Aéroport d'Ålesund

Ålesund, Norvège

latitude: 62-34N, longitude: 006-07E, altitude: 2 m

Observation

Le bulletin a été fait il y a 29 minutes, à 00:50 UTC
Vent 12 kt de sud-ouest
Température 6°C
Humidité 87%
Pression 1018 hPa
Visibilité 10 km ou plus

METAR: ENAL 270050Z AUTO 22012KT 9999 FEW007/// BKN019/// OVC030/// 06/04 Q1018 REUP

Heure: 02:19 (01:19 UTC)

Prévision

Le bulletin a été fait il y a 5 heures et 5 minutes, à 20:14 UTC
Prévision valable du 26 à 20 UTC au 26 à 24 UTC
Vent 17 kt de ouest/sud-ouest
Visibilité 10 km ou plus
Nuages épars à une hauteur de 1200 ft
Nuages fragmentés à une hauteur de 1800 ft
faibles averses de pluie

TAF: ENAL 262014Z 2620/2624 24017KT 9999 -SHRA SCT012 BKN018

Observations et prévisions météorologiques de plus de 4000 aéroports (messages METAR et TAF).

Les stations disponibles sont représentées par des disques jaunes et rouges sur la carte.

Passer la souris dessus pour voir le nom de la station.

Cliquer dessus pour voir les observations et prévisions météorologiques.

Pour changer de carte: cliquez sur les boutons verts avec une croix noire pour zoomer, sur le bouton vert avec un tiret pour effectuer un zoom arrière, ou sur les flèches vertes pour les cartes adjacentes.


METAR-TAF: